createdAt,value
2018-09-26T00:01:26.633Z,7.17
2018-09-26T00:04:07.420Z,7.10
2018-09-26T00:06:43.352Z,7.50
2018-09-26T00:09:19.344Z,7.55
2018-09-26T00:11:55.393Z,7.53
2018-09-26T00:14:32.729Z,7.47
2018-09-26T00:17:08.901Z,7.42
2018-09-26T00:20:02.202Z,7.60
2018-09-26T00:22:39.172Z,7.50
2018-09-26T00:25:15.585Z,7.70
2018-09-26T00:27:51.621Z,7.30
2018-09-26T00:30:27.907Z,6.72
2018-09-26T00:33:04.178Z,7.40
2018-09-26T00:35:40.491Z,7.03
2018-09-26T00:38:16.547Z,7.20
2018-09-26T00:40:52.493Z,6.60
2018-09-26T00:43:28.910Z,7.00
2018-09-26T00:46:05.093Z,6.92
2018-09-26T00:48:41.914Z,6.28
2018-09-26T00:51:21.316Z,7.17
2018-09-26T00:53:57.919Z,7.05
2018-09-26T00:56:35.576Z,6.45
2018-09-26T00:59:11.959Z,7.27
2018-09-26T01:01:48.734Z,7.12
2018-09-26T01:04:24.186Z,7.40
2018-09-26T01:07:00.184Z,6.97
2018-09-26T01:09:36.749Z,7.00
2018-09-26T01:12:15.772Z,6.83
2018-09-26T01:14:51.924Z,7.03
2018-09-26T01:17:28.059Z,6.50
2018-09-26T01:20:04.103Z,6.95
2018-09-26T01:22:40.763Z,6.47
2018-09-26T01:25:16.541Z,6.53
2018-09-26T01:27:52.885Z,7.30
2018-09-26T01:30:30.848Z,6.00
2018-09-26T01:35:00.738Z,6.72
2018-09-26T01:37:37.495Z,6.53
2018-09-26T01:40:13.490Z,7.13
2018-09-26T01:42:49.487Z,6.50
2018-09-26T01:45:24.934Z,6.40
2018-09-26T01:48:01.047Z,6.83
2018-09-26T01:50:37.289Z,6.80
2018-09-26T01:53:14.380Z,6.83
2018-09-26T01:58:47.160Z,6.57
2018-09-26T02:01:24.136Z,6.05
2018-09-26T02:04:00.394Z,6.45
2018-09-26T02:06:36.211Z,6.60
2018-09-26T02:09:15.463Z,6.70
2018-09-26T02:11:51.255Z,6.23
2018-09-26T02:14:26.896Z,6.43
2018-09-26T02:17:02.681Z,6.90
2018-09-26T02:19:38.182Z,6.77
2018-09-26T02:22:13.779Z,7.05
2018-09-26T02:24:49.915Z,6.87
2018-09-26T02:27:26.550Z,6.70
2018-09-26T02:30:02.764Z,7.23
2018-09-26T02:32:39.935Z,6.83
2018-09-26T02:35:16.787Z,7.03
2018-09-26T02:37:52.185Z,7.10
2018-09-26T02:40:29.611Z,6.87
2018-09-26T02:43:05.126Z,6.80
2018-09-26T02:45:41.317Z,7.20
2018-09-26T02:48:21.909Z,7.17
2018-09-26T02:50:58.966Z,7.03
2018-09-26T02:53:34.538Z,6.70
2018-09-26T02:56:10.624Z,7.35
2018-09-26T02:58:46.786Z,7.10
2018-09-26T03:01:22.365Z,6.90
2018-09-26T03:03:58.544Z,7.05
2018-09-26T03:06:34.403Z,6.12
2018-09-26T03:09:12.420Z,7.10
2018-09-26T03:11:48.021Z,7.28
2018-09-26T03:14:23.598Z,7.30
2018-09-26T03:16:59.802Z,7.50
2018-09-26T03:19:35.585Z,6.92
2018-09-26T03:22:11.114Z,7.00
2018-09-26T03:24:46.572Z,6.77
2018-09-26T03:27:22.446Z,6.40
2018-09-26T03:29:59.618Z,6.78
2018-09-26T03:32:35.416Z,6.57
2018-09-26T03:35:11.438Z,6.53
2018-09-26T03:37:47.017Z,6.90
2018-09-26T03:45:17.600Z,6.90
2018-09-26T03:47:52.999Z,6.58
2018-09-26T03:50:28.545Z,7.43
2018-09-26T03:53:04.252Z,7.30
2018-09-26T03:55:39.812Z,7.37
2018-09-26T03:58:15.574Z,7.28
2018-09-26T04:00:51.219Z,6.50
2018-09-26T04:03:27.113Z,7.37
2018-09-26T04:06:07.779Z,6.97
2018-09-26T04:08:43.664Z,6.73
2018-09-26T04:11:19.555Z,7.30
2018-09-26T04:13:56.195Z,7.50
2018-09-26T04:16:31.842Z,7.40
2018-09-26T04:19:07.713Z,8.03
2018-09-26T04:21:43.990Z,7.85
2018-09-26T04:24:20.219Z,7.70
2018-09-26T04:26:56.393Z,7.00
2018-09-26T04:29:33.662Z,6.37
2018-09-26T04:32:09.804Z,7.25
2018-09-26T04:34:45.670Z,6.40
2018-09-26T04:37:21.710Z,6.87
2018-09-26T04:39:58.005Z,6.62
2018-09-26T04:42:35.013Z,6.67
2018-09-26T04:45:11.005Z,7.03
2018-09-26T04:47:47.005Z,7.13
2018-09-26T04:50:23.045Z,6.97
2018-09-26T04:53:01.103Z,6.77
2018-09-26T04:55:37.113Z,6.83
2018-09-26T04:58:13.038Z,6.83
2018-09-26T05:00:49.116Z,6.30
2018-09-26T05:03:25.296Z,6.77
2018-09-26T05:06:01.582Z,6.70
2018-09-26T05:08:38.181Z,7.03
2018-09-26T05:11:14.008Z,6.97
2018-09-26T05:13:50.961Z,7.10
2018-09-26T05:16:27.046Z,6.55
2018-09-26T05:19:03.019Z,7.10
2018-09-26T05:21:39.051Z,7.13
2018-09-26T05:24:15.631Z,7.60
2018-09-26T05:26:51.859Z,7.75
2018-09-26T05:29:27.844Z,7.20
2018-09-26T05:32:03.691Z,7.67
2018-09-26T05:34:39.693Z,6.77
2018-09-26T05:37:16.477Z,7.40
2018-09-26T05:39:52.609Z,6.90
2018-09-26T05:42:28.607Z,6.80
2018-09-26T05:45:04.640Z,7.03
2018-09-26T05:47:40.608Z,6.50
2018-09-26T05:50:17.089Z,7.17
2018-09-26T05:52:53.242Z,7.70
2018-09-26T05:55:29.613Z,6.70
2018-09-26T05:58:05.728Z,6.90
2018-09-26T06:00:42.038Z,7.00
2018-09-26T06:03:18.166Z,6.80
2018-09-26T06:05:54.599Z,6.33
2018-09-26T06:08:30.560Z,6.60
2018-09-26T06:11:07.142Z,6.93
2018-09-26T06:13:43.793Z,6.72
2018-09-26T06:16:19.766Z,7.50
2018-09-26T06:18:55.746Z,6.70
2018-09-26T06:21:32.406Z,6.73
2018-09-26T06:24:09.037Z,6.92
2018-09-26T06:26:44.862Z,7.23
2018-09-26T06:29:20.883Z,7.27
2018-09-26T06:34:52.669Z,5.07
2018-09-26T06:37:29.292Z,4.28
2018-09-26T06:40:05.609Z,4.90
2018-09-26T06:42:42.043Z,4.20
2018-09-26T06:45:17.878Z,3.77
2018-09-26T06:47:54.877Z,3.50
2018-09-26T06:50:30.869Z,3.62
2018-09-26T06:53:06.870Z,3.80
2018-09-26T06:55:43.053Z,3.90
2018-09-26T06:58:19.673Z,4.40
2018-09-26T07:00:55.876Z,3.00
2018-09-26T07:03:32.062Z,3.40
2018-09-26T07:06:07.835Z,3.50
2018-09-26T07:08:43.890Z,3.12
2018-09-26T07:11:19.818Z,3.35
2018-09-26T07:13:56.122Z,4.28
2018-09-26T07:16:32.004Z,3.30
2018-09-26T07:19:08.085Z,3.20
2018-09-26T07:21:43.738Z,3.80
2018-09-26T07:24:19.715Z,3.43
2018-09-26T07:26:56.080Z,3.55
2018-09-26T07:29:32.067Z,3.60
2018-09-26T07:32:08.297Z,3.80
2018-09-26T07:34:44.057Z,4.47
2018-09-26T07:37:20.071Z,4.10
2018-09-26T07:39:56.064Z,4.33
2018-09-26T07:42:31.886Z,5.40
2018-09-26T07:45:07.885Z,4.80
2018-09-26T07:47:43.867Z,5.50
2018-09-26T07:50:19.869Z,5.17
2018-09-26T07:52:55.725Z,5.45
2018-09-26T07:55:31.701Z,5.00
2018-09-26T07:58:07.643Z,5.07
2018-09-26T08:00:43.701Z,4.67
2018-09-26T08:03:19.706Z,4.78
2018-09-26T08:05:55.850Z,5.80
2018-09-26T08:08:32.116Z,5.35
2018-09-26T08:11:08.120Z,5.63
2018-09-26T08:13:44.055Z,4.95
2018-09-26T08:16:23.737Z,5.10
2018-09-26T08:18:59.881Z,5.83
2018-09-26T08:21:36.383Z,4.50
2018-09-26T08:24:13.000Z,5.35
2018-09-26T08:26:48.930Z,4.40
2018-09-26T08:29:24.925Z,4.60
2018-09-26T08:32:02.136Z,6.53
2018-09-26T08:34:38.041Z,4.60
2018-09-26T08:37:14.090Z,5.00
2018-09-26T08:39:49.845Z,4.77
2018-09-26T08:42:25.849Z,5.00
2018-09-26T08:45:01.826Z,4.63
2018-09-26T08:47:38.425Z,5.07
2018-09-26T08:50:14.877Z,5.30
2018-09-26T08:52:51.267Z,4.87
2018-09-26T08:55:27.672Z,4.50
2018-09-26T08:58:03.905Z,4.75
2018-09-26T09:00:40.369Z,4.75
2018-09-26T09:03:16.890Z,6.28
2018-09-26T09:05:53.749Z,5.80
2018-09-26T09:08:30.541Z,5.20
2018-09-26T09:11:06.525Z,5.50
2018-09-26T09:13:42.924Z,4.83
2018-09-26T09:16:19.276Z,5.80
2018-09-26T09:18:55.704Z,5.77
2018-09-26T09:21:31.754Z,4.75
2018-09-26T09:24:07.774Z,4.95
2018-09-26T09:26:43.860Z,5.90
2018-09-26T09:29:20.054Z,4.73
2018-09-26T09:31:55.925Z,5.50
2018-09-26T09:34:31.745Z,5.37
2018-09-26T09:37:08.098Z,4.83
2018-09-26T09:39:44.472Z,5.25
2018-09-26T09:42:20.840Z,5.40
2018-09-26T09:44:57.142Z,4.50
2018-09-26T09:47:33.293Z,5.58
2018-09-26T09:50:09.695Z,4.42
2018-09-26T09:52:45.692Z,4.40
2018-09-26T09:55:21.821Z,4.83
2018-09-26T09:57:57.957Z,5.20
2018-09-26T10:00:37.824Z,4.80
2018-09-26T10:03:15.590Z,5.27
2018-09-26T10:05:52.565Z,4.60
2018-09-26T10:08:28.544Z,4.65
2018-09-26T10:11:04.514Z,4.08
2018-09-26T10:13:40.684Z,4.10
2018-09-26T10:16:16.953Z,4.20
2018-09-26T10:18:53.081Z,4.20
2018-09-26T10:21:29.186Z,4.08
2018-09-26T10:24:05.296Z,4.83
2018-09-26T10:26:41.133Z,4.78
2018-09-26T10:29:17.747Z,4.00
2018-09-26T10:31:53.714Z,4.90
2018-09-26T10:35:32.136Z,5.20
2018-09-26T10:38:09.337Z,4.97
2018-09-26T10:40:44.988Z,4.50
2018-09-26T10:43:21.141Z,4.70
2018-09-26T10:45:57.364Z,4.83
2018-09-26T10:48:33.572Z,4.03
2018-09-26T10:51:09.963Z,4.92
2018-09-26T10:53:45.946Z,5.07
2018-09-26T10:56:21.887Z,4.93
2018-09-26T11:02:06.774Z,4.55
2018-09-26T11:04:49.323Z,5.10
2018-09-26T11:07:32.222Z,4.40
2018-09-26T11:10:07.969Z,4.23
2018-09-26T11:12:43.983Z,4.27
2018-09-26T11:15:26.747Z,4.20
2018-09-26T11:18:02.953Z,4.20
2018-09-26T11:20:41.414Z,4.22
2018-09-26T11:23:17.147Z,4.27
2018-09-26T11:25:53.172Z,4.08
2018-09-26T11:28:29.171Z,4.00
2018-09-26T11:31:04.980Z,4.13
2018-09-26T11:33:41.182Z,4.30
2018-09-26T11:38:51.333Z,4.90
2018-09-26T11:41:27.157Z,4.62
2018-09-26T11:44:03.697Z,4.30
2018-09-26T11:46:39.992Z,3.90
2018-09-26T11:49:15.977Z,5.00
2018-09-26T11:51:52.733Z,4.17
2018-09-26T11:54:29.103Z,4.50
2018-09-26T11:57:05.197Z,4.87
2018-09-26T11:59:41.192Z,4.40
2018-09-26T12:02:17.480Z,4.60
2018-09-26T12:04:53.797Z,3.90
2018-09-26T12:07:29.831Z,4.25
2018-09-26T12:10:06.040Z,4.07
2018-09-26T12:12:42.175Z,4.13
2018-09-26T12:15:18.159Z,4.10
2018-09-26T12:17:54.168Z,4.10
2018-09-26T12:20:30.016Z,4.00
2018-09-26T12:23:06.182Z,3.87
2018-09-26T12:25:42.175Z,4.47
2018-09-26T12:28:18.810Z,3.85
2018-09-26T12:30:55.020Z,3.83
2018-09-26T12:33:30.997Z,4.12
2018-09-26T12:36:07.627Z,3.50
2018-09-26T12:38:44.122Z,3.70
2018-09-26T12:41:20.930Z,4.00
2018-09-26T12:43:56.909Z,4.00
2018-09-26T12:46:32.993Z,3.60
2018-09-26T12:49:09.174Z,3.70
2018-09-26T12:51:44.985Z,4.10
2018-09-26T12:54:21.023Z,4.30
2018-09-26T12:56:57.857Z,4.23
2018-09-26T12:59:33.825Z,4.33
2018-09-26T13:02:09.850Z,4.17
2018-09-26T13:04:45.849Z,3.47
2018-09-26T13:08:25.161Z,3.90
2018-09-26T13:11:01.005Z,4.12
2018-09-26T13:13:36.822Z,3.73
2018-09-26T13:16:13.034Z,4.37
2018-09-26T13:18:49.013Z,4.37
2018-09-26T13:21:26.134Z,3.80
2018-09-26T13:24:01.983Z,3.80
2018-09-26T13:26:38.909Z,4.05
2018-09-26T13:29:15.012Z,4.30
2018-09-26T13:31:50.913Z,3.80
2018-09-26T13:34:27.018Z,4.25
2018-09-26T13:37:03.016Z,4.00
2018-09-26T13:39:39.013Z,4.28
2018-09-26T13:42:14.963Z,4.10
2018-09-26T13:44:51.005Z,4.07
2018-09-26T13:47:27.142Z,4.03
2018-09-26T13:50:03.262Z,4.10
2018-09-26T13:52:39.141Z,3.50
2018-09-26T13:55:14.930Z,3.07
2018-09-26T13:57:50.910Z,2.70
2018-09-26T14:00:28.364Z,4.57
2018-09-26T14:03:05.194Z,6.42
2018-09-26T14:05:41.774Z,7.70
2018-09-26T14:08:17.818Z,6.63
2018-09-26T14:10:53.838Z,6.60
2018-09-26T14:13:30.202Z,5.20
2018-09-26T14:16:06.202Z,6.40
2018-09-26T14:18:42.026Z,6.50
2018-09-26T14:21:18.044Z,6.80
2018-09-26T14:23:54.028Z,6.90
2018-09-26T14:26:29.924Z,6.40
2018-09-26T14:29:06.034Z,7.30
2018-09-26T14:31:42.033Z,7.37
2018-09-26T14:34:18.030Z,7.17
2018-09-26T14:36:54.229Z,5.45
2018-09-26T14:39:30.144Z,5.70
2018-09-26T14:42:06.690Z,6.72
2018-09-26T14:44:42.694Z,6.83
2018-09-26T14:47:18.715Z,8.00
2018-09-26T14:49:55.384Z,8.03
2018-09-26T14:52:31.834Z,6.40
2018-09-26T14:55:07.901Z,6.92
2018-09-26T14:57:43.849Z,8.30
2018-09-26T15:00:19.777Z,7.75
2018-09-26T15:02:56.011Z,6.15
2018-09-26T15:05:31.872Z,8.00
2018-09-26T15:08:08.037Z,7.37
2018-09-26T15:10:44.383Z,6.87
2018-09-26T15:13:20.925Z,8.08
2018-09-26T15:15:57.044Z,6.30
2018-09-26T15:18:33.225Z,5.40
2018-09-26T15:21:09.053Z,6.90
2018-09-26T15:23:46.059Z,7.03
2018-09-26T15:26:22.279Z,11.03
2018-09-26T15:28:58.231Z,8.40
2018-09-26T15:31:34.881Z,9.47
2018-09-26T15:34:11.249Z,8.70
2018-09-26T15:36:47.229Z,10.90
2018-09-26T15:39:23.177Z,9.55
2018-09-26T15:41:58.803Z,9.00
2018-09-26T15:44:34.812Z,8.90
2018-09-26T15:47:11.337Z,9.88
2018-09-26T15:49:47.445Z,10.58
2018-09-26T15:52:23.465Z,8.08
2018-09-26T15:54:59.467Z,10.98
2018-09-26T15:57:35.239Z,11.73
2018-09-26T16:00:12.099Z,10.78
2018-09-26T16:02:48.253Z,10.50
2018-09-26T16:05:23.894Z,10.63
2018-09-26T16:08:00.487Z,9.53
2018-09-26T16:10:36.429Z,11.47
2018-09-26T16:13:12.237Z,11.73
2018-09-26T16:15:48.073Z,11.50
2018-09-26T16:18:24.255Z,11.70
2018-09-26T16:21:00.241Z,9.15
2018-09-26T16:23:36.423Z,11.80
2018-09-26T16:26:12.480Z,11.43
2018-09-26T16:28:48.750Z,11.20
2018-09-26T16:31:24.938Z,13.65
2018-09-26T16:34:01.069Z,12.50
2018-09-26T16:36:36.977Z,13.80
2018-09-26T16:39:16.232Z,14.00
2018-09-26T16:41:52.249Z,13.68
2018-09-26T16:44:28.079Z,14.00
2018-09-26T16:47:04.840Z,14.53
2018-09-26T16:49:41.484Z,14.30
2018-09-26T16:52:17.960Z,13.58
2018-09-26T16:54:53.833Z,13.07
2018-09-26T16:57:29.896Z,11.63
2018-09-26T17:00:06.125Z,11.57
2018-09-26T17:02:41.956Z,12.80
2018-09-26T17:05:17.847Z,12.50
2018-09-26T17:07:53.536Z,10.65
2018-09-26T17:10:28.853Z,11.40
2018-09-26T17:13:04.479Z,13.90
2018-09-26T17:15:39.906Z,13.15
2018-09-26T17:18:16.072Z,10.68
2018-09-26T17:20:51.660Z,12.58
2018-09-26T17:23:27.327Z,12.50
2018-09-26T17:26:26.081Z,9.10
2018-09-26T17:29:01.910Z,11.95
2018-09-26T17:31:37.465Z,8.45
2018-09-26T17:34:13.110Z,10.10
2018-09-26T17:36:48.718Z,10.57
2018-09-26T17:39:24.283Z,11.80
2018-09-26T17:41:59.886Z,7.80
2018-09-26T17:44:35.463Z,7.03
2018-09-26T17:48:02.448Z,5.83
2018-09-26T17:52:18.183Z,5.70
2018-09-26T17:54:53.846Z,5.17
2018-09-26T17:57:29.269Z,5.47
2018-09-26T18:00:04.760Z,5.37
2018-09-26T18:02:40.465Z,5.15
2018-09-26T18:05:15.801Z,5.23
2018-09-26T18:07:51.486Z,5.15
2018-09-26T18:10:26.737Z,5.13
2018-09-26T18:13:02.058Z,4.90
2018-09-26T18:15:37.449Z,5.03
2018-09-26T18:18:13.277Z,5.30
2018-09-26T18:20:48.724Z,5.20
2018-09-26T18:23:24.149Z,5.40
2018-09-26T18:25:59.862Z,4.73
2018-09-26T18:33:35.044Z,4.40
2018-09-26T18:36:10.813Z,4.23
2018-09-26T18:38:46.535Z,5.00
2018-09-26T18:41:22.249Z,4.45
2018-09-26T18:43:57.456Z,4.70
2018-09-26T18:46:33.014Z,5.00
2018-09-26T18:49:08.758Z,4.60
2018-09-26T18:51:44.297Z,4.63
2018-09-26T18:54:19.828Z,4.40
2018-09-26T18:56:55.400Z,4.60
2018-09-26T18:59:31.016Z,4.63
2018-09-26T19:02:06.489Z,4.70
2018-09-26T19:04:42.058Z,4.30
2018-09-26T19:07:17.474Z,4.60
2018-09-26T19:09:53.017Z,4.70
2018-09-26T19:12:28.659Z,3.90
2018-09-26T19:15:04.520Z,3.80
2018-09-26T19:17:39.807Z,4.30
2018-09-26T19:20:15.476Z,3.90
2018-09-26T19:22:51.043Z,4.20
2018-09-26T19:28:28.311Z,3.70
2018-09-26T19:31:03.500Z,4.20
2018-09-26T19:33:39.098Z,3.80
2018-09-26T19:36:14.932Z,3.80
2018-09-26T19:38:50.487Z,4.63
2018-09-26T19:41:25.940Z,3.80
2018-09-26T19:44:01.424Z,3.85
2018-09-26T19:46:37.306Z,3.67
2018-09-26T19:49:12.744Z,3.70
2018-09-26T19:51:48.125Z,3.97
2018-09-26T19:54:23.733Z,4.03
2018-09-26T19:56:59.389Z,3.92
2018-09-26T19:59:34.960Z,4.03
2018-09-26T20:02:10.370Z,3.75
2018-09-26T20:04:46.161Z,4.40
2018-09-26T20:07:22.823Z,3.90
2018-09-26T20:09:58.506Z,4.20
2018-09-26T20:12:33.907Z,4.27
2018-09-26T20:19:58.048Z,3.90
2018-09-26T20:22:33.757Z,4.53
2018-09-26T20:25:10.196Z,3.90
2018-09-26T20:27:46.901Z,3.85
2018-09-26T20:30:23.124Z,4.37
2018-09-26T20:32:59.371Z,4.28
2018-09-26T20:35:34.969Z,3.57
2018-09-26T20:38:10.789Z,4.00
2018-09-26T20:40:46.155Z,3.83
2018-09-26T20:44:32.525Z,4.00
2018-09-26T20:47:08.341Z,4.28
2018-09-26T20:49:44.154Z,3.83
2018-09-26T20:52:19.640Z,3.92
2018-09-26T20:54:55.439Z,4.00
2018-09-26T20:57:31.477Z,3.93
2018-09-26T21:00:07.167Z,4.37
2018-09-26T21:02:42.537Z,3.83
2018-09-26T21:07:44.292Z,3.60
2018-09-26T21:12:15.286Z,4.10
2018-09-26T21:14:51.321Z,3.90
2018-09-26T21:17:26.767Z,4.00
2018-09-26T21:21:05.002Z,3.85
2018-09-26T21:23:41.338Z,3.67
2018-09-26T21:26:17.192Z,4.20
2018-09-26T21:28:52.895Z,3.70
2018-09-26T21:31:29.056Z,3.57
2018-09-26T21:34:05.179Z,3.72
2018-09-26T21:36:41.173Z,4.00
2018-09-26T21:39:17.513Z,3.90
2018-09-26T21:41:53.624Z,4.25
2018-09-26T21:44:29.377Z,3.70
2018-09-26T21:47:05.385Z,3.45
2018-09-26T21:49:41.414Z,3.90
2018-09-26T21:54:51.301Z,3.90
2018-09-26T21:57:27.346Z,3.95
2018-09-26T22:00:03.073Z,3.90
2018-09-26T22:02:39.354Z,3.83
2018-09-26T22:05:15.557Z,3.55
2018-09-26T22:07:51.526Z,3.90
2018-09-26T22:10:27.330Z,3.50
2018-09-26T22:13:03.089Z,3.90
2018-09-26T22:15:39.096Z,3.60
2018-09-26T22:18:15.091Z,3.60
2018-09-26T22:20:51.181Z,3.50
2018-09-26T22:23:27.450Z,3.20
2018-09-26T22:26:03.553Z,3.37
2018-09-26T22:28:40.186Z,3.22
2018-09-26T22:31:16.243Z,3.50
2018-09-26T22:33:52.241Z,3.20
2018-09-26T22:36:28.369Z,3.00
2018-09-26T22:39:04.949Z,3.10
2018-09-26T22:41:40.528Z,3.10
2018-09-26T22:44:16.048Z,3.20
2018-09-26T22:46:51.533Z,2.80
2018-09-26T22:49:27.177Z,3.10
2018-09-26T22:52:02.944Z,3.00
2018-09-26T22:54:38.551Z,2.95
2018-09-26T22:57:14.133Z,2.90
2018-09-26T22:59:49.667Z,3.10
2018-09-26T23:02:25.204Z,2.90
2018-09-26T23:05:00.546Z,2.60
2018-09-26T23:07:35.961Z,2.67
2018-09-26T23:10:11.374Z,2.77
2018-09-26T23:12:46.860Z,3.03
2018-09-26T23:15:22.205Z,3.00
2018-09-26T23:17:57.953Z,2.60
2018-09-26T23:20:33.554Z,2.58
2018-09-26T23:23:09.123Z,2.90
2018-09-26T23:25:44.557Z,3.00
2018-09-26T23:28:20.221Z,2.50
2018-09-26T23:30:55.873Z,2.70
2018-09-26T23:33:31.496Z,2.50
2018-09-26T23:36:07.211Z,2.80
2018-09-26T23:38:42.873Z,2.70
2018-09-26T23:41:18.405Z,2.90
2018-09-26T23:43:53.979Z,3.00
2018-09-26T23:46:29.577Z,2.67
2018-09-26T23:49:04.966Z,3.03
2018-09-26T23:51:40.560Z,2.85
2018-09-26T23:54:16.551Z,3.00
2018-09-26T23:56:52.223Z,3.10
2018-09-26T23:59:27.982Z,2.70
